sensor_id;sensor_type;location;lat;lon;timestamp;temperature;humidity
32394;DHT22;18853;45.426;9.206;2023-06-22T00:00:53;32.00;43.40
32394;DHT22;18853;45.426;9.206;2023-06-22T00:03:20;31.90;43.40
32394;DHT22;18853;45.426;9.206;2023-06-22T00:05:47;31.90;43.60
32394;DHT22;18853;45.426;9.206;2023-06-22T00:08:13;31.90;43.80
32394;DHT22;18853;45.426;9.206;2023-06-22T00:10:39;31.90;43.80
32394;DHT22;18853;45.426;9.206;2023-06-22T00:13:06;31.80;43.80
32394;DHT22;18853;45.426;9.206;2023-06-22T00:15:32;31.80;44.00
32394;DHT22;18853;45.426;9.206;2023-06-22T00:17:58;31.90;44.00
32394;DHT22;18853;45.426;9.206;2023-06-22T00:20:25;31.80;44.20
32394;DHT22;18853;45.426;9.206;2023-06-22T00:22:57;31.80;44.20
32394;DHT22;18853;45.426;9.206;2023-06-22T00:25:23;31.80;44.30
32394;DHT22;18853;45.426;9.206;2023-06-22T00:27:49;31.70;44.30
32394;DHT22;18853;45.426;9.206;2023-06-22T00:30:18;31.70;44.60
32394;DHT22;18853;45.426;9.206;2023-06-22T00:32:45;31.80;44.70
32394;DHT22;18853;45.426;9.206;2023-06-22T00:35:11;31.70;44.90
32394;DHT22;18853;45.426;9.206;2023-06-22T00:37:38;31.80;45.00
32394;DHT22;18853;45.426;9.206;2023-06-22T00:40:06;31.70;45.00
32394;DHT22;18853;45.426;9.206;2023-06-22T00:42:33;31.80;45.20
32394;DHT22;18853;45.426;9.206;2023-06-22T00:44:58;31.70;45.30
32394;DHT22;18853;45.426;9.206;2023-06-22T00:47:24;31.70;45.40
32394;DHT22;18853;45.426;9.206;2023-06-22T00:49:50;31.70;45.50
32394;DHT22;18853;45.426;9.206;2023-06-22T00:52:25;31.70;45.50
32394;DHT22;18853;45.426;9.206;2023-06-22T00:54:59;31.70;45.50
32394;DHT22;18853;45.426;9.206;2023-06-22T00:57:27;31.60;45.60
32394;DHT22;18853;45.426;9.206;2023-06-22T00:59:54;31.60;45.80
32394;DHT22;18853;45.426;9.206;2023-06-22T01:02:19;31.60;45.80
32394;DHT22;18853;45.426;9.206;2023-06-22T01:04:45;31.50;45.90
32394;DHT22;18853;45.426;9.206;2023-06-22T01:10:02;31.60;46.00
32394;DHT22;18853;45.426;9.206;2023-06-22T01:12:37;31.50;45.80
32394;DHT22;18853;45.426;9.206;2023-06-22T01:15:28;31.50;45.80
32394;DHT22;18853;45.426;9.206;2023-06-22T01:17:57;31.50;45.80
32394;DHT22;18853;45.426;9.206;2023-06-22T01:20:25;31.40;46.00
32394;DHT22;18853;45.426;9.206;2023-06-22T01:23:11;31.50;46.20
32394;DHT22;18853;45.426;9.206;2023-06-22T01:25:48;31.50;46.30
32394;DHT22;18853;45.426;9.206;2023-06-22T01:28:39;31.50;46.30
32394;DHT22;18853;45.426;9.206;2023-06-22T01:31:07;31.50;46.20
32394;DHT22;18853;45.426;9.206;2023-06-22T01:33:37;31.40;46.10
32394;DHT22;18853;45.426;9.206;2023-06-22T01:36:05;31.40;46.00
32394;DHT22;18853;45.426;9.206;2023-06-22T01:38:33;31.40;46.10
32394;DHT22;18853;45.426;9.206;2023-06-22T01:41:00;31.40;46.10
32394;DHT22;18853;45.426;9.206;2023-06-22T01:43:27;31.30;46.20
32394;DHT22;18853;45.426;9.206;2023-06-22T01:45:54;31.30;46.50
32394;DHT22;18853;45.426;9.206;2023-06-22T01:48:21;31.30;46.60
32394;DHT22;18853;45.426;9.206;2023-06-22T01:50:48;31.30;46.50
32394;DHT22;18853;45.426;9.206;2023-06-22T01:53:14;31.40;46.60
32394;DHT22;18853;45.426;9.206;2023-06-22T01:55:39;31.30;46.60
32394;DHT22;18853;45.426;9.206;2023-06-22T01:58:05;31.40;46.60
32394;DHT22;18853;45.426;9.206;2023-06-22T02:00:37;31.40;46.70
32394;DHT22;18853;45.426;9.206;2023-06-22T02:03:22;31.40;46.90
32394;DHT22;18853;45.426;9.206;2023-06-22T02:05:58;31.30;46.90
32394;DHT22;18853;45.426;9.206;2023-06-22T02:08:35;31.30;47.10
32394;DHT22;18853;45.426;9.206;2023-06-22T02:11:03;31.30;47.10
32394;DHT22;18853;45.426;9.206;2023-06-22T02:13:29;31.30;47.20
32394;DHT22;18853;45.426;9.206;2023-06-22T02:15:56;31.30;47.20
32394;DHT22;18853;45.426;9.206;2023-06-22T02:18:22;31.20;47.40
32394;DHT22;18853;45.426;9.206;2023-06-22T02:20:48;31.20;47.40
32394;DHT22;18853;45.426;9.206;2023-06-22T02:23:13;31.20;47.50
32394;DHT22;18853;45.426;9.206;2023-06-22T02:25:39;31.10;47.50
32394;DHT22;18853;45.426;9.206;2023-06-22T02:28:05;31.20;47.50
32394;DHT22;18853;45.426;9.206;2023-06-22T02:30:32;31.20;47.50
32394;DHT22;18853;45.426;9.206;2023-06-22T02:32:58;31.20;47.50
32394;DHT22;18853;45.426;9.206;2023-06-22T02:35:29;31.20;47.50
32394;DHT22;18853;45.426;9.206;2023-06-22T02:38:02;31.20;47.50
32394;DHT22;18853;45.426;9.206;2023-06-22T02:40:29;31.20;47.40
32394;DHT22;18853;45.426;9.206;2023-06-22T02:42:56;31.20;47.40
32394;DHT22;18853;45.426;9.206;2023-06-22T02:45:23;31.20;47.50
32394;DHT22;18853;45.426;9.206;2023-06-22T02:47:49;31.20;47.60
32394;DHT22;18853;45.426;9.206;2023-06-22T02:50:15;31.20;47.60
32394;DHT22;18853;45.426;9.206;2023-06-22T02:52:41;31.20;47.70
32394;DHT22;18853;45.426;9.206;2023-06-22T02:55:07;31.10;47.70
32394;DHT22;18853;45.426;9.206;2023-06-22T02:57:33;31.10;47.90
32394;DHT22;18853;45.426;9.206;2023-06-22T02:59:59;31.10;47.90
32394;DHT22;18853;45.426;9.206;2023-06-22T03:02:25;31.10;47.90
32394;DHT22;18853;45.426;9.206;2023-06-22T03:04:52;31.10;48.00
32394;DHT22;18853;45.426;9.206;2023-06-22T03:07:19;31.00;47.90
32394;DHT22;18853;45.426;9.206;2023-06-22T03:09:45;31.00;47.90
32394;DHT22;18853;45.426;9.206;2023-06-22T03:12:11;31.10;47.90
32394;DHT22;18853;45.426;9.206;2023-06-22T03:14:36;31.10;47.90
32394;DHT22;18853;45.426;9.206;2023-06-22T03:17:03;31.00;48.00
32394;DHT22;18853;45.426;9.206;2023-06-22T03:19:29;31.00;47.90
32394;DHT22;18853;45.426;9.206;2023-06-22T03:21:57;31.10;47.90
32394;DHT22;18853;45.426;9.206;2023-06-22T03:24:23;31.00;47.80
32394;DHT22;18853;45.426;9.206;2023-06-22T03:26:49;31.00;47.90
32394;DHT22;18853;45.426;9.206;2023-06-22T03:29:14;31.00;48.00
32394;DHT22;18853;45.426;9.206;2023-06-22T03:31:41;31.00;48.00
32394;DHT22;18853;45.426;9.206;2023-06-22T03:34:07;31.10;47.90
32394;DHT22;18853;45.426;9.206;2023-06-22T03:36:33;31.10;47.60
32394;DHT22;18853;45.426;9.206;2023-06-22T03:38:59;31.10;47.40
32394;DHT22;18853;45.426;9.206;2023-06-22T03:41:24;31.10;47.30
32394;DHT22;18853;45.426;9.206;2023-06-22T03:43:51;31.00;47.30
32394;DHT22;18853;45.426;9.206;2023-06-22T03:46:16;31.00;47.30
32394;DHT22;18853;45.426;9.206;2023-06-22T03:48:42;31.00;47.40
32394;DHT22;18853;45.426;9.206;2023-06-22T03:51:08;31.00;47.40
32394;DHT22;18853;45.426;9.206;2023-06-22T03:53:34;31.00;47.50
32394;DHT22;18853;45.426;9.206;2023-06-22T03:56:00;31.00;47.50
32394;DHT22;18853;45.426;9.206;2023-06-22T03:58:31;31.00;47.40
32394;DHT22;18853;45.426;9.206;2023-06-22T04:01:02;31.00;47.60
32394;DHT22;18853;45.426;9.206;2023-06-22T04:03:27;30.90;47.80
32394;DHT22;18853;45.426;9.206;2023-06-22T04:05:53;30.90;47.80
32394;DHT22;18853;45.426;9.206;2023-06-22T04:08:20;30.90;47.70
32394;DHT22;18853;45.426;9.206;2023-06-22T04:10:45;30.90;47.70
32394;DHT22;18853;45.426;9.206;2023-06-22T04:13:11;30.80;47.70
32394;DHT22;18853;45.426;9.206;2023-06-22T04:15:37;30.80;47.80
32394;DHT22;18853;45.426;9.206;2023-06-22T04:18:03;30.90;47.80
32394;DHT22;18853;45.426;9.206;2023-06-22T04:20:28;30.90;47.90
32394;DHT22;18853;45.426;9.206;2023-06-22T04:22:54;30.90;47.80
32394;DHT22;18853;45.426;9.206;2023-06-22T04:25:20;31.00;47.90
32394;DHT22;18853;45.426;9.206;2023-06-22T04:27:46;30.90;48.00
32394;DHT22;18853;45.426;9.206;2023-06-22T04:30:12;31.00;48.10
32394;DHT22;18853;45.426;9.206;2023-06-22T04:32:40;30.90;48.00
32394;DHT22;18853;45.426;9.206;2023-06-22T04:35:07;30.90;48.00
32394;DHT22;18853;45.426;9.206;2023-06-22T04:37:33;31.00;48.00
32394;DHT22;18853;45.426;9.206;2023-06-22T04:39:59;30.90;48.20
32394;DHT22;18853;45.426;9.206;2023-06-22T04:42:28;30.90;48.20
32394;DHT22;18853;45.426;9.206;2023-06-22T04:44:54;30.90;48.20
32394;DHT22;18853;45.426;9.206;2023-06-22T04:47:20;30.90;48.20
32394;DHT22;18853;45.426;9.206;2023-06-22T04:49:46;30.90;48.20
32394;DHT22;18853;45.426;9.206;2023-06-22T04:52:13;30.90;48.50
32394;DHT22;18853;45.426;9.206;2023-06-22T04:54:40;30.90;48.70
32394;DHT22;18853;45.426;9.206;2023-06-22T04:57:14;30.80;48.60
32394;DHT22;18853;45.426;9.206;2023-06-22T04:59:41;30.80;48.60
32394;DHT22;18853;45.426;9.206;2023-06-22T05:02:07;30.90;48.50
32394;DHT22;18853;45.426;9.206;2023-06-22T05:04:33;30.90;48.50
32394;DHT22;18853;45.426;9.206;2023-06-22T05:07:01;30.80;48.50
32394;DHT22;18853;45.426;9.206;2023-06-22T05:09:28;30.80;48.60
32394;DHT22;18853;45.426;9.206;2023-06-22T05:11:54;30.80;48.60
32394;DHT22;18853;45.426;9.206;2023-06-22T05:14:20;30.80;48.50
32394;DHT22;18853;45.426;9.206;2023-06-22T05:16:46;30.70;48.80
32394;DHT22;18853;45.426;9.206;2023-06-22T05:19:12;30.70;48.80
32394;DHT22;18853;45.426;9.206;2023-06-22T05:21:38;30.60;48.70
32394;DHT22;18853;45.426;9.206;2023-06-22T05:24:04;30.60;48.40
32394;DHT22;18853;45.426;9.206;2023-06-22T05:26:31;30.60;48.40
32394;DHT22;18853;45.426;9.206;2023-06-22T05:28:58;30.60;48.70
32394;DHT22;18853;45.426;9.206;2023-06-22T05:31:24;30.70;48.70
32394;DHT22;18853;45.426;9.206;2023-06-22T05:33:52;30.70;48.90
32394;DHT22;18853;45.426;9.206;2023-06-22T05:36:18;30.60;49.10
32394;DHT22;18853;45.426;9.206;2023-06-22T05:38:45;30.60;49.10
32394;DHT22;18853;45.426;9.206;2023-06-22T05:41:11;30.50;49.20
32394;DHT22;18853;45.426;9.206;2023-06-22T05:43:37;30.50;49.20
32394;DHT22;18853;45.426;9.206;2023-06-22T05:46:04;30.40;49.40
32394;DHT22;18853;45.426;9.206;2023-06-22T05:48:30;30.40;49.90
32394;DHT22;18853;45.426;9.206;2023-06-22T05:50:55;30.30;49.60
32394;DHT22;18853;45.426;9.206;2023-06-22T05:53:21;30.30;49.40
32394;DHT22;18853;45.426;9.206;2023-06-22T05:55:47;30.20;49.70
32394;DHT22;18853;45.426;9.206;2023-06-22T05:58:13;30.30;49.80
32394;DHT22;18853;45.426;9.206;2023-06-22T06:00:40;30.30;49.90
32394;DHT22;18853;45.426;9.206;2023-06-22T06:03:09;30.40;50.20
32394;DHT22;18853;45.426;9.206;2023-06-22T06:05:36;30.50;50.10
32394;DHT22;18853;45.426;9.206;2023-06-22T06:08:03;30.50;50.00
32394;DHT22;18853;45.426;9.206;2023-06-22T06:10:33;30.50;50.10
32394;DHT22;18853;45.426;9.206;2023-06-22T06:12:59;30.50;50.10
32394;DHT22;18853;45.426;9.206;2023-06-22T06:15:27;30.60;50.20
32394;DHT22;18853;45.426;9.206;2023-06-22T06:17:53;30.70;50.40
32394;DHT22;18853;45.426;9.206;2023-06-22T06:20:21;30.70;49.90
32394;DHT22;18853;45.426;9.206;2023-06-22T06:22:48;30.70;49.60
32394;DHT22;18853;45.426;9.206;2023-06-22T06:25:13;30.70;49.30
32394;DHT22;18853;45.426;9.206;2023-06-22T06:27:45;30.70;49.40
32394;DHT22;18853;45.426;9.206;2023-06-22T06:30:12;30.70;49.50
32394;DHT22;18853;45.426;9.206;2023-06-22T06:32:38;30.70;49.70
32394;DHT22;18853;45.426;9.206;2023-06-22T06:35:09;30.70;49.70
32394;DHT22;18853;45.426;9.206;2023-06-22T06:37:40;30.70;49.70
32394;DHT22;18853;45.426;9.206;2023-06-22T06:40:09;30.80;49.80
32394;DHT22;18853;45.426;9.206;2023-06-22T06:42:42;30.70;49.70
32394;DHT22;18853;45.426;9.206;2023-06-22T06:45:31;30.80;49.90
32394;DHT22;18853;45.426;9.206;2023-06-22T06:47:58;30.80;49.80
32394;DHT22;18853;45.426;9.206;2023-06-22T06:50:24;30.80;50.00
32394;DHT22;18853;45.426;9.206;2023-06-22T06:52:49;30.80;50.30
32394;DHT22;18853;45.426;9.206;2023-06-22T06:55:18;30.80;50.40
32394;DHT22;18853;45.426;9.206;2023-06-22T06:57:44;30.90;50.30
32394;DHT22;18853;45.426;9.206;2023-06-22T07:00:14;30.90;50.20
32394;DHT22;18853;45.426;9.206;2023-06-22T07:02:41;30.90;49.70
32394;DHT22;18853;45.426;9.206;2023-06-22T07:05:08;30.90;48.90
32394;DHT22;18853;45.426;9.206;2023-06-22T07:07:34;30.90;49.40
32394;DHT22;18853;45.426;9.206;2023-06-22T07:10:00;30.90;49.40
32394;DHT22;18853;45.426;9.206;2023-06-22T07:12:25;30.90;48.60
32394;DHT22;18853;45.426;9.206;2023-06-22T07:14:52;30.90;49.10
32394;DHT22;18853;45.426;9.206;2023-06-22T07:17:18;30.90;50.10
32394;DHT22;18853;45.426;9.206;2023-06-22T07:19:44;30.90;49.10
32394;DHT22;18853;45.426;9.206;2023-06-22T07:22:09;30.90;49.50
32394;DHT22;18853;45.426;9.206;2023-06-22T07:24:35;30.90;49.60
32394;DHT22;18853;45.426;9.206;2023-06-22T07:27:02;30.90;49.40
32394;DHT22;18853;45.426;9.206;2023-06-22T07:29:29;30.90;49.40
32394;DHT22;18853;45.426;9.206;2023-06-22T07:31:55;31.00;49.10
32394;DHT22;18853;45.426;9.206;2023-06-22T07:34:22;31.00;48.30
32394;DHT22;18853;45.426;9.206;2023-06-22T07:36:48;30.90;47.90
32394;DHT22;18853;45.426;9.206;2023-06-22T07:39:13;30.90;48.70
32394;DHT22;18853;45.426;9.206;2023-06-22T07:41:40;30.90;49.70
32394;DHT22;18853;45.426;9.206;2023-06-22T07:44:08;30.90;49.40
32394;DHT22;18853;45.426;9.206;2023-06-22T07:46:34;31.00;48.90
32394;DHT22;18853;45.426;9.206;2023-06-22T07:49:00;31.00;48.60
32394;DHT22;18853;45.426;9.206;2023-06-22T07:51:27;31.00;48.50
32394;DHT22;18853;45.426;9.206;2023-06-22T07:53:53;31.00;48.10
32394;DHT22;18853;45.426;9.206;2023-06-22T07:56:18;31.10;47.80
32394;DHT22;18853;45.426;9.206;2023-06-22T07:58:46;31.10;47.80
32394;DHT22;18853;45.426;9.206;2023-06-22T08:01:13;31.10;47.50
32394;DHT22;18853;45.426;9.206;2023-06-22T08:03:39;31.10;47.50
32394;DHT22;18853;45.426;9.206;2023-06-22T08:06:05;31.20;47.00
32394;DHT22;18853;45.426;9.206;2023-06-22T08:08:31;31.20;46.60
32394;DHT22;18853;45.426;9.206;2023-06-22T08:10:57;31.10;46.10
32394;DHT22;18853;45.426;9.206;2023-06-22T08:13:23;31.20;46.30
32394;DHT22;18853;45.426;9.206;2023-06-22T08:15:48;31.20;45.80
32394;DHT22;18853;45.426;9.206;2023-06-22T08:18:14;31.20;45.60
32394;DHT22;18853;45.426;9.206;2023-06-22T08:20:40;31.20;45.90
32394;DHT22;18853;45.426;9.206;2023-06-22T08:23:06;31.30;46.00
32394;DHT22;18853;45.426;9.206;2023-06-22T08:25:35;31.20;45.60
32394;DHT22;18853;45.426;9.206;2023-06-22T08:28:02;31.20;44.80
32394;DHT22;18853;45.426;9.206;2023-06-22T08:30:28;31.20;44.50
32394;DHT22;18853;45.426;9.206;2023-06-22T08:32:53;31.20;44.00
32394;DHT22;18853;45.426;9.206;2023-06-22T08:35:21;31.30;44.90
32394;DHT22;18853;45.426;9.206;2023-06-22T08:37:47;31.30;44.40
32394;DHT22;18853;45.426;9.206;2023-06-22T08:40:17;31.30;44.80
32394;DHT22;18853;45.426;9.206;2023-06-22T08:42:46;31.30;45.00
32394;DHT22;18853;45.426;9.206;2023-06-22T08:45:13;31.40;45.30
32394;DHT22;18853;45.426;9.206;2023-06-22T08:47:39;31.30;45.10
32394;DHT22;18853;45.426;9.206;2023-06-22T08:50:07;31.40;45.10
32394;DHT22;18853;45.426;9.206;2023-06-22T08:52:34;31.40;45.10
32394;DHT22;18853;45.426;9.206;2023-06-22T08:55:00;31.40;45.20
32394;DHT22;18853;45.426;9.206;2023-06-22T08:57:26;31.40;45.40
32394;DHT22;18853;45.426;9.206;2023-06-22T08:59:52;31.40;45.80
32394;DHT22;18853;45.426;9.206;2023-06-22T09:02:18;31.40;45.80
32394;DHT22;18853;45.426;9.206;2023-06-22T09:04:46;31.40;46.10
32394;DHT22;18853;45.426;9.206;2023-06-22T09:07:11;31.40;45.90
32394;DHT22;18853;45.426;9.206;2023-06-22T09:09:37;31.50;45.60
32394;DHT22;18853;45.426;9.206;2023-06-22T09:12:03;31.50;45.60
32394;DHT22;18853;45.426;9.206;2023-06-22T09:14:29;31.60;45.60
32394;DHT22;18853;45.426;9.206;2023-06-22T09:16:55;31.60;45.60
32394;DHT22;18853;45.426;9.206;2023-06-22T09:19:20;31.60;45.40
32394;DHT22;18853;45.426;9.206;2023-06-22T09:21:46;31.60;44.70
32394;DHT22;18853;45.426;9.206;2023-06-22T09:24:12;31.70;44.20
32394;DHT22;18853;45.426;9.206;2023-06-22T09:26:37;31.70;44.10
32394;DHT22;18853;45.426;9.206;2023-06-22T09:29:05;31.80;44.10
32394;DHT22;18853;45.426;9.206;2023-06-22T09:31:31;31.80;43.70
32394;DHT22;18853;45.426;9.206;2023-06-22T09:33:57;31.80;43.80
32394;DHT22;18853;45.426;9.206;2023-06-22T09:36:23;31.80;43.90
32394;DHT22;18853;45.426;9.206;2023-06-22T09:38:49;31.90;43.90
32394;DHT22;18853;45.426;9.206;2023-06-22T09:41:20;32.00;43.60
32394;DHT22;18853;45.426;9.206;2023-06-22T09:43:46;32.00;43.20
32394;DHT22;18853;45.426;9.206;2023-06-22T09:46:14;32.00;43.20
32394;DHT22;18853;45.426;9.206;2023-06-22T09:48:40;32.00;43.60
32394;DHT22;18853;45.426;9.206;2023-06-22T09:51:06;32.00;43.60
32394;DHT22;18853;45.426;9.206;2023-06-22T09:53:32;32.10;43.40
32394;DHT22;18853;45.426;9.206;2023-06-22T09:55:57;32.10;43.40
32394;DHT22;18853;45.426;9.206;2023-06-22T09:58:23;32.20;43.40
32394;DHT22;18853;45.426;9.206;2023-06-22T10:00:49;32.10;42.90
32394;DHT22;18853;45.426;9.206;2023-06-22T10:03:15;32.20;43.00
32394;DHT22;18853;45.426;9.206;2023-06-22T10:05:40;32.20;43.30
32394;DHT22;18853;45.426;9.206;2023-06-22T10:08:06;32.20;43.30
32394;DHT22;18853;45.426;9.206;2023-06-22T10:10:33;32.10;43.30
32394;DHT22;18853;45.426;9.206;2023-06-22T10:13:07;32.20;43.20
32394;DHT22;18853;45.426;9.206;2023-06-22T10:15:33;32.30;43.30
32394;DHT22;18853;45.426;9.206;2023-06-22T10:17:59;32.30;43.30
32394;DHT22;18853;45.426;9.206;2023-06-22T10:20:25;32.30;43.30
32394;DHT22;18853;45.426;9.206;2023-06-22T10:22:51;32.40;42.20
32394;DHT22;18853;45.426;9.206;2023-06-22T10:25:17;32.50;42.80
32394;DHT22;18853;45.426;9.206;2023-06-22T10:27:43;32.40;41.90
32394;DHT22;18853;45.426;9.206;2023-06-22T10:30:10;32.50;41.70
32394;DHT22;18853;45.426;9.206;2023-06-22T10:32:38;32.60;41.90
32394;DHT22;18853;45.426;9.206;2023-06-22T10:35:05;32.60;41.60
32394;DHT22;18853;45.426;9.206;2023-06-22T10:37:30;32.60;41.70
32394;DHT22;18853;45.426;9.206;2023-06-22T10:39:56;32.60;41.90
32394;DHT22;18853;45.426;9.206;2023-06-22T10:42:22;32.70;42.10
32394;DHT22;18853;45.426;9.206;2023-06-22T10:44:48;32.80;43.00
32394;DHT22;18853;45.426;9.206;2023-06-22T10:47:13;32.80;43.00
32394;DHT22;18853;45.426;9.206;2023-06-22T10:49:40;32.80;42.30
32394;DHT22;18853;45.426;9.206;2023-06-22T10:52:07;32.90;41.90
32394;DHT22;18853;45.426;9.206;2023-06-22T10:54:33;32.90;42.20
32394;DHT22;18853;45.426;9.206;2023-06-22T10:57:00;33.00;43.00
32394;DHT22;18853;45.426;9.206;2023-06-22T10:59:25;33.00;43.80
32394;DHT22;18853;45.426;9.206;2023-06-22T11:01:53;33.00;42.50
32394;DHT22;18853;45.426;9.206;2023-06-22T11:04:18;33.00;42.80
32394;DHT22;18853;45.426;9.206;2023-06-22T11:06:44;33.00;42.50
32394;DHT22;18853;45.426;9.206;2023-06-22T11:09:10;33.10;43.10
32394;DHT22;18853;45.426;9.206;2023-06-22T11:11:36;33.10;43.00
32394;DHT22;18853;45.426;9.206;2023-06-22T11:14:02;33.20;42.50
32394;DHT22;18853;45.426;9.206;2023-06-22T11:16:28;33.20;42.40
32394;DHT22;18853;45.426;9.206;2023-06-22T11:18:54;33.30;42.70
32394;DHT22;18853;45.426;9.206;2023-06-22T11:21:19;33.20;41.80
32394;DHT22;18853;45.426;9.206;2023-06-22T11:23:45;33.30;41.60
32394;DHT22;18853;45.426;9.206;2023-06-22T11:26:11;33.30;42.20
32394;DHT22;18853;45.426;9.206;2023-06-22T11:28:36;33.30;42.20
32394;DHT22;18853;45.426;9.206;2023-06-22T11:31:03;33.40;42.90
32394;DHT22;18853;45.426;9.206;2023-06-22T11:33:28;33.40;42.50
32394;DHT22;18853;45.426;9.206;2023-06-22T11:35:54;33.50;42.00
32394;DHT22;18853;45.426;9.206;2023-06-22T11:38:21;33.50;41.70
32394;DHT22;18853;45.426;9.206;2023-06-22T11:40:47;33.60;41.60
32394;DHT22;18853;45.426;9.206;2023-06-22T11:43:13;33.70;41.80
32394;DHT22;18853;45.426;9.206;2023-06-22T11:45:40;33.80;42.20
32394;DHT22;18853;45.426;9.206;2023-06-22T11:48:06;33.80;43.50
32394;DHT22;18853;45.426;9.206;2023-06-22T11:50:32;33.90;42.50
32394;DHT22;18853;45.426;9.206;2023-06-22T11:53:02;34.00;43.00
32394;DHT22;18853;45.426;9.206;2023-06-22T11:55:28;34.00;42.30
32394;DHT22;18853;45.426;9.206;2023-06-22T11:57:57;34.00;42.30
32394;DHT22;18853;45.426;9.206;2023-06-22T12:00:32;34.10;42.00
32394;DHT22;18853;45.426;9.206;2023-06-22T12:02:57;34.10;41.50
32394;DHT22;18853;45.426;9.206;2023-06-22T12:05:23;34.10;40.70
32394;DHT22;18853;45.426;9.206;2023-06-22T12:07:50;34.20;40.90
32394;DHT22;18853;45.426;9.206;2023-06-22T12:10:17;34.10;41.30
32394;DHT22;18853;45.426;9.206;2023-06-22T12:12:43;34.10;40.90
32394;DHT22;18853;45.426;9.206;2023-06-22T12:15:09;34.20;40.80
32394;DHT22;18853;45.426;9.206;2023-06-22T12:17:35;34.20;40.90
32394;DHT22;18853;45.426;9.206;2023-06-22T12:20:01;34.30;40.60
32394;DHT22;18853;45.426;9.206;2023-06-22T12:22:33;34.30;40.50
32394;DHT22;18853;45.426;9.206;2023-06-22T12:25:00;34.30;40.10
32394;DHT22;18853;45.426;9.206;2023-06-22T12:27:26;34.40;40.10
32394;DHT22;18853;45.426;9.206;2023-06-22T12:29:52;34.50;40.20
32394;DHT22;18853;45.426;9.206;2023-06-22T12:32:17;34.60;39.10
32394;DHT22;18853;45.426;9.206;2023-06-22T12:34:44;34.60;39.10
32394;DHT22;18853;45.426;9.206;2023-06-22T12:37:10;34.50;39.30
32394;DHT22;18853;45.426;9.206;2023-06-22T12:39:35;34.50;39.50
32394;DHT22;18853;45.426;9.206;2023-06-22T12:42:01;34.40;39.40
32394;DHT22;18853;45.426;9.206;2023-06-22T12:44:27;34.40;39.20
32394;DHT22;18853;45.426;9.206;2023-06-22T12:46:53;34.30;39.30
32394;DHT22;18853;45.426;9.206;2023-06-22T12:49:18;34.30;39.10
32394;DHT22;18853;45.426;9.206;2023-06-22T12:51:44;34.30;39.30
32394;DHT22;18853;45.426;9.206;2023-06-22T12:54:11;34.30;39.40
32394;DHT22;18853;45.426;9.206;2023-06-22T12:56:37;34.30;39.60
32394;DHT22;18853;45.426;9.206;2023-06-22T12:59:04;34.50;40.60
32394;DHT22;18853;45.426;9.206;2023-06-22T13:01:30;34.60;40.90
32394;DHT22;18853;45.426;9.206;2023-06-22T13:04:00;34.60;39.90
32394;DHT22;18853;45.426;9.206;2023-06-22T13:06:25;34.70;40.00
32394;DHT22;18853;45.426;9.206;2023-06-22T13:08:51;34.80;40.00
32394;DHT22;18853;45.426;9.206;2023-06-22T13:11:17;34.90;39.80
32394;DHT22;18853;45.426;9.206;2023-06-22T13:13:45;34.90;39.60
32394;DHT22;18853;45.426;9.206;2023-06-22T13:16:12;34.90;39.20
32394;DHT22;18853;45.426;9.206;2023-06-22T13:18:38;34.90;39.30
32394;DHT22;18853;45.426;9.206;2023-06-22T13:21:04;35.00;40.00
32394;DHT22;18853;45.426;9.206;2023-06-22T13:23:30;35.00;40.30
32394;DHT22;18853;45.426;9.206;2023-06-22T13:25:58;35.00;39.80
32394;DHT22;18853;45.426;9.206;2023-06-22T13:28:23;35.00;39.40
32394;DHT22;18853;45.426;9.206;2023-06-22T13:30:49;34.90;39.60
32394;DHT22;18853;45.426;9.206;2023-06-22T13:33:15;34.90;39.50
32394;DHT22;18853;45.426;9.206;2023-06-22T13:35:41;34.90;39.50
32394;DHT22;18853;45.426;9.206;2023-06-22T13:38:10;34.90;40.00
32394;DHT22;18853;45.426;9.206;2023-06-22T13:40:37;34.80;40.30
32394;DHT22;18853;45.426;9.206;2023-06-22T13:43:05;34.90;40.70
32394;DHT22;18853;45.426;9.206;2023-06-22T13:45:31;34.90;40.70
32394;DHT22;18853;45.426;9.206;2023-06-22T13:47:57;34.90;40.70
32394;DHT22;18853;45.426;9.206;2023-06-22T13:50:23;34.90;40.50
32394;DHT22;18853;45.426;9.206;2023-06-22T13:52:49;34.80;40.30
32394;DHT22;18853;45.426;9.206;2023-06-22T13:55:14;34.80;40.10
32394;DHT22;18853;45.426;9.206;2023-06-22T13:57:40;34.70;39.90
32394;DHT22;18853;45.426;9.206;2023-06-22T14:00:07;34.80;40.10
32394;DHT22;18853;45.426;9.206;2023-06-22T14:02:38;34.80;39.50
32394;DHT22;18853;45.426;9.206;2023-06-22T14:05:05;34.80;39.30
32394;DHT22;18853;45.426;9.206;2023-06-22T14:07:31;34.80;39.40
32394;DHT22;18853;45.426;9.206;2023-06-22T14:09:57;34.80;39.60
32394;DHT22;18853;45.426;9.206;2023-06-22T14:12:23;34.90;39.60
32394;DHT22;18853;45.426;9.206;2023-06-22T14:14:49;35.00;39.90
32394;DHT22;18853;45.426;9.206;2023-06-22T14:17:15;34.90;40.20
32394;DHT22;18853;45.426;9.206;2023-06-22T14:19:41;34.90;39.90
32394;DHT22;18853;45.426;9.206;2023-06-22T14:22:06;34.90;40.20
32394;DHT22;18853;45.426;9.206;2023-06-22T14:24:32;35.00;39.80
32394;DHT22;18853;45.426;9.206;2023-06-22T14:26:58;35.00;39.60
32394;DHT22;18853;45.426;9.206;2023-06-22T14:29:24;35.20;40.00
32394;DHT22;18853;45.426;9.206;2023-06-22T14:31:50;35.30;39.50
32394;DHT22;18853;45.426;9.206;2023-06-22T14:34:15;35.30;39.10
32394;DHT22;18853;45.426;9.206;2023-06-22T14:36:42;35.30;39.10
32394;DHT22;18853;45.426;9.206;2023-06-22T14:39:08;35.40;38.60
32394;DHT22;18853;45.426;9.206;2023-06-22T14:41:34;35.40;38.60
32394;DHT22;18853;45.426;9.206;2023-06-22T14:44:00;35.40;38.30
32394;DHT22;18853;45.426;9.206;2023-06-22T14:46:25;35.50;38.30
32394;DHT22;18853;45.426;9.206;2023-06-22T14:48:51;35.60;38.00
32394;DHT22;18853;45.426;9.206;2023-06-22T14:51:17;35.70;38.00
32394;DHT22;18853;45.426;9.206;2023-06-22T14:53:44;35.80;37.90
32394;DHT22;18853;45.426;9.206;2023-06-22T14:56:09;35.80;37.60
32394;DHT22;18853;45.426;9.206;2023-06-22T14:58:35;35.90;37.30
32394;DHT22;18853;45.426;9.206;2023-06-22T15:01:02;35.90;37.10
32394;DHT22;18853;45.426;9.206;2023-06-22T15:03:29;35.90;37.30
32394;DHT22;18853;45.426;9.206;2023-06-22T15:05:56;35.90;36.30
32394;DHT22;18853;45.426;9.206;2023-06-22T15:08:22;35.90;35.80
32394;DHT22;18853;45.426;9.206;2023-06-22T15:10:48;35.80;35.50
32394;DHT22;18853;45.426;9.206;2023-06-22T15:13:13;35.80;34.50
32394;DHT22;18853;45.426;9.206;2023-06-22T15:15:39;35.70;34.00
32394;DHT22;18853;45.426;9.206;2023-06-22T15:18:05;35.70;33.90
32394;DHT22;18853;45.426;9.206;2023-06-22T15:20:30;35.80;34.50
32394;DHT22;18853;45.426;9.206;2023-06-22T15:22:59;35.80;35.10
32394;DHT22;18853;45.426;9.206;2023-06-22T15:25:25;35.70;35.60
32394;DHT22;18853;45.426;9.206;2023-06-22T15:27:51;35.60;35.70
32394;DHT22;18853;45.426;9.206;2023-06-22T15:30:16;35.50;35.20